M I D A S
Marine Information and Data Acquisition System
Tripno 868 of the Zeeleeuw from 2005-03-22 08:14:00 to 2005-03-22 13:26:49
Back to CruiseResearch ActivitiesStationsMapUnderway DataData graphs

EquipmentUnitsComment
TimeDGPSUTC
LatitudeDGPSDM.mWGS84
LongitudeDGPSDM.mWGS84
TemperatureSBE03/SBE38deg celciusITS90
ConductivitySBE21S/mITS90
SalinitySBE21 Practical Salinity Units
ChlorophylAChelsea fluorimeterg/lCalibrated in Aceton
Missing or incorrect values are displayed as -999
Sea surface data collected by the RV Zeeleeuw from 2005-03-22 08:12:02 to 2005-03-22 13:35:43
Time Latitude Longitude Temperature Conductivity Salinity ChlorophylA
2005-03-22 08:13:08 51°13.613 2°56.037 -999 4.631426 30.744164 -0.848668
2005-03-22 08:14:08 51°13.646 2°55.942 -999 2.792785 25.489802 6.904494
2005-03-22 08:15:08 51°13.684 2°55.844 -999 2.696108 25.63953 6.297725
2005-03-22 08:16:07 51°13.7 2°55.74 -999 2.707262 26.009055 6.60111
2005-03-22 08:17:08 51°13.718 2°55.743 -999 2.674966 25.736372 7.073042
2005-03-22 08:18:07 51°13.738 2°55.724 -999 2.60291 24.95312 7.14046
2005-03-22 08:19:07 51°13.821 2°55.64 -999 2.582926 24.748203 6.904494
2005-03-22 08:20:07 51°13.936 2°55.554 -999 2.561365 24.480929 6.971913
2005-03-22 08:21:07 51°14.058 2°55.467 -999 2.667708 25.702729 5.994341
2005-03-22 08:22:08 51°14.174 2°55.36 -999 2.618899 25.153242 5.522409
2005-03-22 08:23:07 51°14.274 2°55.205 -999 2.623527 25.207704 5.084187
2005-03-22 08:24:07 51°14.361 2°55.036 -999 2.70232 26.155165 4.88193
2005-03-22 08:25:07 51°14.48 2°54.824 -999 2.765553 26.901007 4.34258
2005-03-22 08:26:07 51°14.51 2°54.508 -999 2.926355 28.889837 3.634683
2005-03-22 08:27:07 51°14.459 2°54.182 -999 2.950248 29.20756 3.331298
2005-03-22 08:28:07 51°14.358 2°53.888 -999 2.964037 29.412414 3.061623
2005-03-22 08:29:07 51°14.246 2°53.601 -999 2.962353 29.422956 2.893076
2005-03-22 08:30:07 51°14.137 2°53.312 -999 2.964459 29.480336 2.791947
2005-03-22 08:31:07 51°14.027 2°53.023 -999 2.961723 29.491367 2.791947
2005-03-22 08:32:07 51°13.917 2°52.732 -999 2.962144 29.513959 2.825657
2005-03-22 08:33:07 51°13.808 2°52.439 -999 2.960249 29.506598 2.825657
2005-03-22 08:34:07 51°13.699 2°52.147 -999 2.960671 29.518726 2.859366
2005-03-22 08:35:07 51°13.591 2°51.855 -999 2.963513 29.562021 2.960494
2005-03-22 08:36:07 51°13.482 2°51.563 -999 2.962039 29.538288 2.859366
2005-03-22 08:37:07 51°13.374 2°51.272 -999 2.971091 29.61615 2.791947
2005-03-22 08:38:07 51°13.267 2°50.981 -999 2.96488 29.517847 2.690819
2005-03-22 08:39:07 51°13.159 2°50.69 -999 2.963301 29.472849 2.791947
2005-03-22 08:40:07 51°13.052 2°50.4 -999 2.964459 29.472873 2.758238
2005-03-22 08:41:07 51°12.944 2°50.111 -999 2.988879 29.729773 2.690819
2005-03-22 08:42:07 51°12.836 2°49.821 -999 2.997406 29.800825 2.724529
2005-03-22 08:43:08 51°12.729 2°49.531 -999 2.998668 29.797367 2.65711
2005-03-22 08:44:07 51°12.624 2°49.249 -999 3.004669 29.8587 2.893076
2005-03-22 08:45:07 51°12.517 2°48.958 -999 3.003721 29.848301 3.027913
2005-03-22 08:46:07 51°12.41 2°48.671 -999 3.014774 29.978738 3.061623
2005-03-22 08:47:07 51°12.304 2°48.383 -999 3.003932 29.852875 2.960494
2005-03-22 08:48:07 51°12.199 2°48.096 -999 3.029091 30.116267 2.994204
2005-03-22 08:49:07 51°12.092 2°47.811 -999 3.035828 30.184953 3.027913
2005-03-22 08:50:07 51°11.985 2°47.526 -999 3.040671 30.242745 3.129042
2005-03-22 08:51:07 51°11.895 2°47.231 -999 3.054251 30.385147 3.095332
2005-03-22 08:52:07 51°11.82 2°46.923 -999 3.060778 30.461542 2.994204
2005-03-22 08:53:07 51°11.738 2°46.619 -999 3.054251 30.381311 2.859366
2005-03-22 08:54:07 51°11.657 2°46.314 -999 3.066674 30.514075 2.994204
2005-03-22 08:55:07 51°11.575 2°46.01 -999 3.076254 30.598618 3.027913
2005-03-22 08:56:07 51°11.504 2°45.7 -999 3.076149 30.585886 2.994204
2005-03-22 08:57:07 51°11.431 2°45.387 -999 3.080044 30.624075 3.061623
2005-03-22 08:58:07 51°11.359 2°45.078 -999 3.096678 30.806231 2.994204
2005-03-22 08:59:07 51°11.286 2°44.769 -999 3.094678 30.779569 3.162751
2005-03-22 09:00:07 51°11.213 2°44.46 -999 3.100258 30.844837 3.162751
2005-03-22 09:01:07 51°11.142 2°44.153 -999 3.111945 30.957846 3.263879
2005-03-22 09:02:07 51°11.074 2°43.838 -999 3.107312 30.887419 3.398717
2005-03-22 09:03:07 51°11.021 2°43.521 -999 3.124473 31.044116 3.331298
2005-03-22 09:04:07 51°10.974 2°43.198 -999 3.130053 31.064824 3.331298
2005-03-22 09:05:07 51°10.932 2°42.875 -999 3.128158 31.021417 3.365007
2005-03-22 09:06:07 51°10.876 2°42.561 -999 3.151216 31.254129 3.263879
2005-03-22 09:07:07 51°10.807 2°42.249 -999 3.164694 31.372195 3.23017
2005-03-22 09:08:07 51°10.734 2°41.945 -999 3.17059 31.413284 3.23017
2005-03-22 09:09:07 51°10.637 2°41.656 -999 3.187016 31.556359 3.027913
2005-03-22 09:10:07 51°10.543 2°41.368 -999 3.195124 31.605737 2.960494
2005-03-22 09:11:07 51°10.469 2°41.066 -999 3.209339 31.72583 3.19646
2005-03-22 09:12:07 51°10.401 2°40.763 -999 3.231243 31.94422 3.365007
2005-03-22 09:13:07 51°10.329 2°40.457 -999 3.23198 31.940349 3.533554
2005-03-22 09:14:07 51°10.263 2°40.149 -999 3.239141 32.011576 3.668392
2005-03-22 09:15:07 51°10.204 2°39.837 -999 3.232401 31.937798 3.80323
2005-03-22 09:16:07 51°10.147 2°39.526 -999 3.223134 31.835599 3.80323
2005-03-22 09:17:07 51°10.087 2°39.215 -999 3.25757 32.205411 3.870648
2005-03-22 09:18:07 51°10.028 2°38.907 -999 3.261888 32.249505 3.971777
2005-03-22 09:19:07 51°9.969 2°38.594 -999 3.264415 32.277199 4.275161
2005-03-22 09:20:07 51°9.912 2°38.283 -999 3.258202 32.198699 4.207742
2005-03-22 09:21:07 51°9.855 2°37.973 -999 3.203968 31.585113 4.308871
2005-03-22 09:22:07 51°9.798 2°37.667 -999 3.263256 32.216365 4.477418
2005-03-22 09:23:07 51°9.743 2°37.354 -999 3.282213 32.420625 4.780802
2005-03-22 09:24:07 51°9.688 2°37.045 -999 3.265678 32.215631 4.679674
2005-03-22 09:25:07 51°9.633 2°36.739 -999 3.274735 32.299419 4.612255
2005-03-22 09:26:07 51°9.578 2°36.434 -999 3.276525 32.306959 4.679674
2005-03-22 09:27:07 51°9.524 2°36.129 -999 3.269258 32.224359 4.848221
2005-03-22 09:28:07 51°9.47 2°35.822 -999 3.281054 32.339598 4.747093
2005-03-22 09:29:08 51°9.414 2°35.513 -999 3.291585 32.412874 4.780802
2005-03-22 09:30:07 51°9.361 2°35.209 -999 3.294955 32.469777 4.679674
2005-03-22 09:31:07 51°9.306 2°34.906 -999 3.284634 32.390774 4.91564
2005-03-22 09:32:07 51°9.252 2°34.595 -999 3.282423 32.373831 4.848221
2005-03-22 09:33:08 51°9.198 2°34.285 -999 3.285477 32.407223 4.848221
2005-03-22 09:34:07 51°9.141 2°33.986 -999 3.282213 32.417401 4.848221
2005-03-22 09:35:07 51°9.079 2°33.681 -999 3.282424 32.447136 4.747093
2005-03-22 09:36:07 51°9.019 2°33.38 -999 3.280633 32.431554 4.747093
2005-03-22 09:37:07 51°8.968 2°33.145 -999 3.282845 32.465487 4.645965
2005-03-22 09:38:07 51°8.959 2°33.049 -999 3.278422 32.454981 4.645965
2005-03-22 09:39:07 51°8.975 2°33.049 -999 3.273157 32.43926 4.511127
2005-03-22 09:40:07 51°8.992 2°33.049 -999 3.271788 32.442849 4.511127
2005-03-22 09:41:07 51°9.003 2°33.051 -999 3.262942 32.355343 4.376289
2005-03-22 09:42:08 51°9.013 2°33.058 -999 3.268418 32.424443 4.376289
2005-03-22 09:43:07 51°9.022 2°33.068 -999 3.269893 32.447142 4.477418
2005-03-22 09:44:08 51°9.03 2°33.081 -999 3.282636 32.593852 4.443708
2005-03-22 09:45:07 51°9.039 2°33.096 -999 3.274843 32.507275 4.443708
2005-03-22 09:46:08 51°9.048 2°33.112 -999 3.265048 32.404401 4.511127
2005-03-22 09:47:07 51°9.056 2°33.128 -999 3.26905 32.454104 4.409999
2005-03-22 09:48:07 51°9.065 2°33.144 -999 3.26547 32.41633 4.409999
2005-03-22 09:49:07 51°9.073 2°33.159 -999 3.273052 32.502207 4.443708
2005-03-22 09:50:07 51°9.079 2°33.172 -999 3.275159 32.52295 4.511127
2005-03-22 09:51:07 51°9.084 2°33.183 -999 3.270946 32.478213 4.544836
2005-03-22 09:52:07 51°9.088 2°33.192 -999 3.270209 32.4701 4.511127
2005-03-22 09:53:07 51°9.092 2°33.199 -999 3.27221 32.492934 4.544836
2005-03-22 09:54:07 51°9.095 2°33.206 -999 3.271473 32.488071 4.544836
2005-03-22 09:55:07 51°9.098 2°33.213 -999 3.284216 32.631642 4.544836
2005-03-22 09:56:07 51°9.1 2°33.22 -999 3.278318 32.56669 4.544836
2005-03-22 09:57:07 51°9.1 2°33.225 -999 3.270946 32.487966 4.612255
2005-03-22 09:58:07 51°9.09 2°33.234 -999 3.284005 32.636672 4.645965
2005-03-22 09:59:07 51°9.075 2°33.274 -999 3.283268 32.627734 4.679674
2005-03-22 10:00:07 51°9.075 2°33.351 -999 3.27874 32.581113 4.645965
2005-03-22 10:01:07 51°9.07 2°33.44 -999 3.280846 32.604315 4.747093
2005-03-22 10:02:07 51°9.048 2°33.502 -999 3.273053 32.517664 4.814512
2005-03-22 10:03:07 51°9.014 2°33.534 -999 3.276949 32.563838 4.780802
2005-03-22 10:04:08 51°8.965 2°33.54 -999 3.273895 32.527756 4.747093
2005-03-22 10:05:07 51°8.898 2°33.525 -999 3.275791 32.545375 4.848221
2005-03-22 10:06:07 51°8.821 2°33.508 -999 3.278739 32.559108 5.252734
2005-03-22 10:07:07 51°8.739 2°33.506 -999 3.259151 32.340351 5.758375
2005-03-22 10:08:07 51°8.658 2°33.506 -999 3.280951 32.600579 5.724665
2005-03-22 10:09:08 51°8.578 2°33.505 -999 3.280846 32.588816 5.589828
2005-03-22 10:10:08 51°8.496 2°33.503 -999 3.283057 32.603381 5.4887
2005-03-22 10:11:08 51°8.412 2°33.499 -999 3.282215 32.575367 5.353862
2005-03-22 10:12:07 51°8.331 2°33.483 -999 3.275264 32.485917 5.185315
2005-03-22 10:13:07 51°8.253 2°33.466 -999 3.278528 32.502324 5.050477
2005-03-22 10:14:07 51°8.206 2°33.452 -999 3.277896 32.485647 5.151606
2005-03-22 10:15:07 51°8.183 2°33.426 -999 3.278949 32.5102 5.353862
2005-03-22 10:16:07 51°8.158 2°33.405 -999 3.273894 32.46681 5.522409
2005-03-22 10:17:07 51°8.13 2°33.392 -999 3.270524 32.433011 5.556118
2005-03-22 10:18:07 51°8.105 2°33.369 -999 3.281793 32.56178 5.556118
2005-03-22 10:19:08 51°8.078 2°33.336 -999 3.276422 32.501089 5.421281
2005-03-22 10:20:07 51°8.034 2°33.296 -999 3.273368 32.467511 5.4887
2005-03-22 10:21:07 51°7.984 2°33.25 -999 3.276001 32.49321 5.623537
2005-03-22 10:22:07 51°7.956 2°33.226 -999 3.266206 32.385557 5.792084
2005-03-22 10:23:07 51°7.959 2°33.224 -999 3.269787 32.420049 5.623537
2005-03-22 10:24:07 51°7.97 2°33.225 -999 3.268102 32.397487 5.522409
2005-03-22 10:25:07 51°7.983 2°33.229 -999 3.27758 32.496776 5.623537
2005-03-22 10:26:07 51°7.997 2°33.237 -999 3.265259 32.36544 5.724665
2005-03-22 10:27:07 51°8.013 2°33.248 -999 3.263258 32.344268 5.859503
2005-03-22 10:28:08 51°8.028 2°33.262 -999 3.273578 32.457662 5.792084
2005-03-22 10:29:08 51°8.045 2°33.278 -999 3.277896 32.504307 5.724665
2005-03-22 10:30:07 51°8.061 2°33.294 -999 3.280635 32.534406 5.758375
2005-03-22 10:31:08 51°8.077 2°33.309 -999 3.282214 32.549334 5.690956
2005-03-22 10:32:07 51°8.089 2°33.302 -999 3.282846 32.553842 5.45499
2005-03-22 10:33:07 51°8.107 2°33.27 -999 3.276317 32.486944 5.657247
2005-03-22 10:34:07 51°8.139 2°33.227 -999 3.282214 32.546896 5.589828
2005-03-22 10:35:07 51°8.181 2°33.195 -999 3.268102 32.398296 5.690956
2005-03-22 10:36:07 51°8.231 2°33.178 -999 3.282741 32.564068 5.758375
2005-03-22 10:37:08 51°8.294 2°33.184 -999 3.274316 32.478742 5.926922
2005-03-22 10:38:08 51°8.357 2°33.235 -999 3.284321 32.586325 5.758375
2005-03-22 10:39:08 51°8.411 2°33.316 -999 3.27895 32.519944 5.556118
2005-03-22 10:40:07 51°8.452 2°33.412 -999 3.282951 32.554999 5.286443
2005-03-22 10:41:07 51°8.482 2°33.513 -999 3.275053 32.466568 5.084187
2005-03-22 10:42:07 51°8.504 2°33.603 -999 3.282425 32.546773 5.084187
2005-03-22 10:43:07 51°8.524 2°33.686 -999 3.273473 32.44435 5.219024
2005-03-22 10:44:07 51°8.544 2°33.763 -999 3.290429 32.63558 5.185315
2005-03-22 10:45:07 51°8.564 2°33.837 -999 3.287269 32.601655 5.219024
2005-03-22 10:46:07 51°8.581 2°33.913 -999 3.287796 32.607445 5.117896
2005-03-22 10:47:07 51°8.598 2°33.987 -999 3.286532 32.594364 5.117896
2005-03-22 10:48:07 51°8.615 2°34.064 -999 3.269787 32.409525 5.050477
2005-03-22 10:49:07 51°8.632 2°34.139 -999 3.286006 32.592644 5.050477
2005-03-22 10:50:07 51°8.65 2°34.216 -999 3.280529 32.528374 5.050477
2005-03-22 10:51:07 51°8.668 2°34.294 -999 3.285163 32.576872 5.084187
2005-03-22 10:52:08 51°8.686 2°34.374 -999 3.286953 32.597368 5.016768
2005-03-22 10:53:07 51°8.705 2°34.453 -999 3.285163 32.576058 5.050477
2005-03-22 10:54:07 51°8.727 2°34.532 -999 3.275474 32.469575 5.219024
2005-03-22 10:55:08 51°8.751 2°34.611 -999 3.266522 32.37043 5.353862
2005-03-22 10:56:07 51°8.776 2°34.688 -999 3.266417 32.369274 5.353862
2005-03-22 10:57:07 51°8.8 2°34.767 -999 3.290745 32.637424 5.219024
2005-03-22 10:58:07 51°8.822 2°34.845 -999 3.291061 32.636009 5.219024
2005-03-22 10:59:08 51°8.845 2°34.926 -999 3.290955 32.632407 5.151606
2005-03-22 11:00:08 51°8.867 2°35.006 -999 3.290955 32.635666 5.050477
2005-03-22 11:01:07 51°8.89 2°35.087 -999 3.291061 32.631936 5.151606
2005-03-22 11:02:07 51°8.913 2°35.169 -999 3.291061 32.633565 5.219024
2005-03-22 11:03:07 51°8.937 2°35.251 -999 3.291166 32.633908 5.151606
2005-03-22 11:04:07 51°8.96 2°35.333 -999 3.290955 32.632407 5.320153
2005-03-22 11:05:08 51°8.983 2°35.417 -999 3.281266 32.525919 5.4887
2005-03-22 11:06:07 51°9.007 2°35.497 -999 3.290955 32.634036 5.421281
2005-03-22 11:07:07 51°9.032 2°35.58 -999 3.290955 32.631593 5.421281
2005-03-22 11:08:07 51°9.059 2°35.659 -999 3.290955 32.632407 5.320153
2005-03-22 11:09:08 51°9.086 2°35.736 -999 3.291061 32.63438 5.320153
2005-03-22 11:10:07 51°9.111 2°35.808 -999 3.291271 32.63588 5.320153
2005-03-22 11:11:08 51°9.135 2°35.88 -999 3.29085 32.634508 5.219024
2005-03-22 11:12:07 51°9.159 2°35.947 -999 3.290745 32.631721 5.185315
2005-03-22 11:13:07 51°9.187 2°36.026 -999 3.290745 32.630906 5.320153
2005-03-22 11:14:07 51°9.21 2°36.123 -999 3.290955 32.634851 5.219024
2005-03-22 11:15:07 51°9.227 2°36.226 -999 3.290324 32.631163 5.286443
2005-03-22 11:16:07 51°9.243 2°36.344 -999 3.290324 32.636052 5.4887
2005-03-22 11:17:08 51°9.261 2°36.482 -999 3.289692 32.633178 5.724665
2005-03-22 11:18:08 51°9.274 2°36.612 -999 3.289586 32.626316 5.825794
2005-03-22 11:19:07 51°9.277 2°36.712 -999 3.28927 32.613884 5.960631
2005-03-22 11:20:07 51°9.278 2°36.795 -999 3.290007 32.603269 5.792084
2005-03-22 11:21:07 51°9.264 2°36.926 -999 3.292113 32.593887 5.825794
2005-03-22 11:22:07 51°9.253 2°37.129 -999 3.296009 32.578213 6.398853
2005-03-22 11:23:08 51°9.296 2°37.34 -999 3.305908 32.554765 6.904494
2005-03-22 11:24:08 51°9.388 2°37.489 -999 3.312753 32.55054 6.297725
2005-03-22 11:25:07 51°9.46 2°37.559 -999 3.315702 32.552123 5.994341
2005-03-22 11:26:08 51°9.532 2°37.581 -999 3.313911 32.55673 6.02805
2005-03-22 11:27:07 51°9.57 2°37.458 -999 3.309805 32.567479 6.196597
2005-03-22 11:28:07 51°9.546 2°37.172 -999 3.300432 32.591025 5.893212
2005-03-22 11:29:07 51°9.468 2°36.891 -999 3.293693 32.614478 6.162888
2005-03-22 11:30:08 51°9.392 2°36.597 -999 3.288428 32.585101 6.196597
2005-03-22 11:31:07 51°9.33 2°36.301 -999 3.291061 32.626235 6.196597
2005-03-22 11:32:08 51°9.269 2°35.996 -999 3.289586 32.601894 6.230306
2005-03-22 11:33:08 51°9.21 2°35.69 -999 3.291692 32.615273 5.792084
2005-03-22 11:34:08 51°9.151 2°35.382 -999 3.290113 32.602799 5.792084
2005-03-22 11:35:07 51°9.093 2°35.077 -999 3.289902 32.607806 5.859503
2005-03-22 11:36:08 51°9.036 2°34.763 -999 3.288533 32.598457 5.859503
2005-03-22 11:37:07 51°8.979 2°34.454 -999 3.28927 32.606558 5.960631
2005-03-22 11:38:07 51°8.913 2°34.194 -999 3.287691 32.590825 5.859503
2005-03-22 11:39:08 51°8.883 2°34.144 -999 3.286954 32.620991 6.129178
2005-03-22 11:40:08 51°8.876 2°34.155 -999 3.29085 32.664683 5.690956
2005-03-22 11:41:08 51°8.875 2°34.178 -999 3.286848 32.614127 5.522409
2005-03-22 11:42:08 51°8.872 2°34.209 -999 3.291166 32.659998 5.421281
2005-03-22 11:43:08 51°8.867 2°34.252 -999 3.287902 32.625712 5.556118
2005-03-22 11:44:08 51°8.859 2°34.294 -999 3.287375 32.610957 5.556118
2005-03-22 11:45:08 51°8.838 2°34.311 -999 3.288849 32.619839 5.589828
2005-03-22 11:46:08 51°8.821 2°34.295 -999 3.28748 32.597459 5.657247
2005-03-22 11:47:07 51°8.816 2°34.247 -999 3.291271 32.633437 5.623537
2005-03-22 11:48:07 51°8.837 2°34.183 -999 3.291377 32.628893 5.589828
2005-03-22 11:49:07 51°8.88 2°34.126 -999 3.283899 32.546726 5.724665
2005-03-22 11:50:08 51°8.939 2°34.084 -999 3.288849 32.608439 5.792084
2005-03-22 11:51:08 51°9.004 2°34.056 -999 3.286427 32.593206 5.724665
2005-03-22 11:52:08 51°9.071 2°34.035 -999 3.288218 32.650399 5.758375
2005-03-22 11:53:08 51°9.144 2°34.036 -999 3.283585 32.683574 7.780939
2005-03-22 11:54:07 51°9.219 2°34.081 -999 3.274107 32.648596 6.365144
2005-03-22 11:55:07 51°9.279 2°34.172 -999 3.270948 32.606301 6.398853
2005-03-22 11:56:07 51°9.308 2°34.292 -999 3.26842 32.573466 6.365144
2005-03-22 11:57:08 51°9.311 2°34.402 -999 3.276002 32.647398 6.533691
2005-03-22 11:58:07 51°9.304 2°34.499 -999 3.276318 32.649248 6.466272
2005-03-22 11:59:08 51°9.293 2°34.592 -999 3.278003 32.669503 6.533691
2005-03-22 12:00:07 51°9.278 2°34.678 -999 3.276108 32.628896 6.365144
2005-03-22 12:01:07 51°9.261 2°34.764 -999 3.280109 32.634591 6.230306
2005-03-22 12:02:07 51°9.246 2°34.851 -999 3.283374 32.646054 6.196597
2005-03-22 12:03:08 51°9.228 2°34.937 -999 3.282952 32.607115 6.264016
2005-03-22 12:04:07 51°9.206 2°35.013 -999 3.287164 32.624939 6.196597
2005-03-22 12:05:07 51°9.185 2°35.091 -999 3.285584 32.571743 5.994341
2005-03-22 12:06:08 51°9.165 2°35.174 -999 3.287901 32.592326 5.994341
2005-03-22 12:07:07 51°9.145 2°35.255 -999 3.28769 32.589198 6.129178
2005-03-22 12:08:07 51°9.13 2°35.341 -999 3.287796 32.590355 6.129178
2005-03-22 12:09:07 51°9.117 2°35.432 -999 3.287796 32.591169 6.264016
2005-03-22 12:10:08 51°9.103 2°35.522 -999 3.285795 32.572432 6.365144
2005-03-22 12:11:08 51°9.089 2°35.611 -999 3.287164 32.585851 6.264016
2005-03-22 12:12:07 51°9.076 2°35.7 -999 3.284847 32.551454 6.129178
2005-03-22 12:13:08 51°9.065 2°35.794 -999 3.284742 32.548673 6.264016
2005-03-22 12:14:07 51°9.055 2°35.884 -999 3.285795 32.557805 6.331435
2005-03-22 12:15:07 51°9.046 2°35.976 -999 3.285163 32.541122 6.533691
2005-03-22 12:16:07 51°9.031 2°36.062 -999 3.286531 32.530196 6.5674
2005-03-22 12:17:08 51°9.005 2°36.128 -999 3.290112 32.513592 6.803366
2005-03-22 12:18:07 51°8.974 2°36.167 -999 3.293692 32.501093 6.837076
2005-03-22 12:19:08 51°8.951 2°36.185 -999 3.300011 32.533076 6.904494
2005-03-22 12:20:08 51°8.938 2°36.202 -999 3.302538 32.550212 7.073042
2005-03-22 12:21:08 51°8.93 2°36.22 -999 3.298957 32.507056 7.039332
2005-03-22 12:22:07 51°8.918 2°36.244 -999 3.297588 32.49371 6.938204
2005-03-22 12:23:08 51°8.907 2°36.366 -999 3.297799 32.510516 7.511264
2005-03-22 12:24:07 51°8.997 2°36.628 -999 3.296746 32.499812 8.050614
2005-03-22 12:25:08 51°9.114 2°36.951 -999 3.298746 32.48865 8.219161
2005-03-22 12:26:07 51°9.201 2°37.294 -999 3.302959 32.512908 7.915777
2005-03-22 12:27:08 51°9.293 2°37.641 -999 3.302643 32.502219 7.848358
2005-03-22 12:28:08 51°9.382 2°37.986 -999 3.302221 32.479939 7.882067
2005-03-22 12:29:08 51°9.472 2°38.332 -999 3.303801 32.467457 7.814648
2005-03-22 12:30:07 51°9.56 2°38.674 -999 3.310014 32.503047 7.612392
2005-03-22 12:31:08 51°9.65 2°39.025 -999 3.310435 32.461967 7.949486
2005-03-22 12:32:07 51°9.738 2°39.365 -999 3.31886 32.511132 7.74723
2005-03-22 12:33:07 51°9.826 2°39.71 -999 3.319913 32.479413 7.646101
2005-03-22 12:34:07 51°9.914 2°40.053 -999 3.325705 32.494356 6.971913
2005-03-22 12:35:07 51°10.001 2°40.397 -999 3.322756 32.444893 6.971913
2005-03-22 12:36:07 51°10.089 2°40.743 -999 3.323914 32.431197 6.803366
2005-03-22 12:37:08 51°10.179 2°41.093 -999 3.325705 32.45216 6.499982
2005-03-22 12:38:08 51°10.267 2°41.441 -999 3.328864 32.441054 6.196597
2005-03-22 12:39:07 51°10.354 2°41.784 -999 3.323071 32.391136 6.095469
2005-03-22 12:40:08 51°10.443 2°42.143 -999 3.318227 32.379189 5.893212
2005-03-22 12:41:07 51°10.53 2°42.492 -999 3.310855 32.381968 5.994341
2005-03-22 12:42:07 51°10.618 2°42.84 -999 3.296218 32.363261 6.162888
2005-03-22 12:43:07 51°10.706 2°43.188 -999 3.289373 32.360675 5.994341
2005-03-22 12:44:07 51°10.795 2°43.536 -999 3.285581 32.330534 5.724665
2005-03-22 12:45:08 51°10.884 2°43.89 -999 3.283159 32.323322 5.657247
2005-03-22 12:46:07 51°10.97 2°44.233 -999 3.281159 32.315898 5.657247
2005-03-22 12:47:08 51°11.059 2°44.583 -999 3.285161 32.37564 5.589828
2005-03-22 12:48:08 51°11.166 2°44.915 -999 3.28137 32.352681 5.320153
2005-03-22 12:49:08 51°11.28 2°45.24 -999 3.277157 32.321887 5.286443
2005-03-22 12:50:07 51°11.391 2°45.567 -999 3.27147 32.262932 4.477418
2005-03-22 12:51:07 51°11.502 2°45.896 -999 3.265257 32.199826 4.039195
2005-03-22 12:52:07 51°11.614 2°46.226 -999 3.260939 32.15025 3.80323
2005-03-22 12:53:08 51°11.726 2°46.56 -999 3.25799 32.116441 3.76952
2005-03-22 12:54:08 51°11.838 2°46.889 -999 3.249987 32.063266 3.870648
2005-03-22 12:55:07 51°11.958 2°47.205 -999 3.241036 31.9885 4.072905
2005-03-22 12:56:07 51°12.081 2°47.523 -999 3.232927 31.922089 4.174033
2005-03-22 12:57:07 51°12.202 2°47.844 -999 3.226398 31.864965 4.106614
2005-03-22 12:58:08 51°12.326 2°48.169 -999 3.223239 31.822482 3.80323
2005-03-22 12:59:08 51°12.45 2°48.49 -999 3.22008 31.787938 3.904358
2005-03-22 13:00:08 51°12.572 2°48.812 -999 3.205127 31.618994 3.76952
2005-03-22 13:01:08 51°12.697 2°49.133 -999 3.192912 31.5382 3.836939
2005-03-22 13:02:07 51°12.819 2°49.449 -999 3.180276 31.422778 3.971777
2005-03-22 13:03:07 51°12.943 2°49.771 -999 3.168588 31.309039 3.904358
2005-03-22 13:04:08 51°13.07 2°50.095 -999 3.157849 31.21265 3.938067
2005-03-22 13:05:08 51°13.199 2°50.416 -999 3.149215 31.151695 3.938067
2005-03-22 13:06:07 51°13.324 2°50.729 -999 3.140687 31.102708 4.005486
2005-03-22 13:07:07 51°13.431 2°50.932 -999 3.139213 31.101361 4.072905
2005-03-22 13:08:07 51°13.5 2°51.061 -999 3.137949 31.102324 4.005486
2005-03-22 13:09:09 51°13.511 2°51.087 -999 3.135739 31.113191 4.409999
2005-03-22 13:10:07 51°13.517 2°51.1 -999 3.135317 31.105443 4.275161
2005-03-22 13:11:07 51°13.524 2°51.119 -999 3.135212 31.107412 4.275161
2005-03-22 13:12:07 51°13.564 2°51.199 -999 3.135633 31.106568 4.174033
2005-03-22 13:13:08 51°13.683 2°51.478 -999 3.139002 31.10685 4.207742
2005-03-22 13:14:07 51°13.795 2°51.796 -999 3.130369 31.045676 4.174033
2005-03-22 13:15:07 51°13.904 2°52.117 -999 3.12163 30.990264 4.140324
2005-03-22 13:16:08 51°14.012 2°52.443 -999 3.11405 30.94203 4.275161
2005-03-22 13:17:08 51°14.118 2°52.768 -999 3.107628 30.884669 4.409999
2005-03-22 13:18:07 51°14.224 2°53.091 -999 3.108048 30.837282 3.836939
2005-03-22 13:19:08 51°14.317 2°53.433 -999 3.102678 30.769089 3.870648
2005-03-22 13:20:07 51°14.384 2°53.778 -999 3.093203 30.688321 3.836939
2005-03-22 13:21:07 51°14.438 2°54.13 -999 3.089624 30.659075 3.836939
2005-03-22 13:22:08 51°14.452 2°54.482 -999 3.08257 30.594002 3.904358
2005-03-22 13:23:08 51°14.409 2°54.789 -999 3.072779 30.511925 3.668392
2005-03-22 13:24:08 51°14.347 2°55.034 -999 3.020772 29.837337 3.938067
2005-03-22 13:25:08 51°14.293 2°55.202 -999 3.001087 29.624872 4.578546
2005-03-22 13:26:08 51°14.217 2°55.336 -999 2.941615 28.921574 4.544836
2005-03-22 13:27:08 51°14.113 2°55.427 -999 2.917301 28.639296 4.612255
2005-03-22 13:28:08 51°14.001 2°55.51 -999 2.870256 28.053918 4.174033
2005-03-22 13:29:07 51°13.888 2°55.594 -999 2.831634 27.578312 4.140324
2005-03-22 13:30:08 51°13.778 2°55.688 -999 2.852366 27.876502 4.376289
2005-03-22 13:31:08 51°13.714 2°55.796 -999 2.8229 27.520184 4.039195
2005-03-22 13:32:07 51°13.671 2°55.892 -999 2.714838 26.154813 3.938067
2005-03-22 13:33:07 51°13.63 2°55.98 -999 2.779125 26.942471 3.870648
2005-03-22 13:34:07 51°13.607 2°56.055 -999 2.7383 26.461153 3.836939
2005-03-22 13:35:08 51°13.596 2°56.099 -999 2.653294 25.375684 3.466136